New Horizon — WKWB — position and weather

sailwx.info

Track history (hours):
 
Tides and Currents Weather Stations Pressure Air Temp Water Temp Dewpoint Dewpoint Depression Visibility Wind Speed Wind Dir Waves Ship Positions

Oceanographic research ship New Horizon (USA)

Detailed information on ship capabilities available from University of Delaware's Ocean Information Center.

Owner: Bold Horizon, LLC., Annapolis, MD. More information available from US FCC via Universal Licensing System and Coast Guard Vessel Documentation Center.

Last reported at 2017-Mar-26 01:33 UTC. Time now 2017-Mar-26 01:42 UTC.
Position N 32°37' W 117°15'.

Type: Cargo ship. MMSI: 303273000.

Date/timePositionNaut miles runAvg speedWind from/ knotsBaromVisibWave heightAir tempDewpointWater temp
2017-Mar-26 01:33N 32°37' W 117°15'9 8.9
2017-Mar-26 00:33N 32°34' W 117°25'9 8.8
2017-Mar-25 23:33N 32°31' W 117°35'9 8.7
2017-Mar-25 22:33N 32°28' W 117°44'9 8.6
2017-Mar-25 21:33N 32°24' W 117°54'102 8.5
2017-Mar-25 09:32N 31°47' W 119°46'11 8.3
2017-Mar-25 08:12N 31°43' W 119°58'5 8.4
2017-Mar-25 07:33N 31°42' W 120°04'9 8.7
2017-Mar-25 06:33N 31°38' W 120°14'10 9.1
2017-Mar-25 05:30N 31°35' W 120°24'9 9.0
2017-Mar-25 04:33N 31°32' W 120°33'28 9.0
2017-Mar-25 01:25N 31°22' W 121°04'51 8.7
2017-Mar-24 19:33N 31°04' W 121°60'10 8.6
2017-Mar-24 18:23N 30°60' W 122°11'  
2017-Mar-16 17:25N 29°51' W 125°34'8 9.1
2017-Mar-16 16:34N 29°54' W 125°25'12 9.1
2017-Mar-16 15:15N 29°58' W 125°12'7 9.0
2017-Mar-16 14:30N 30°01' W 125°05'9 9.3
2017-Mar-16 13:29N 30°04' W 124°55'9 9.5
2017-Mar-16 12:32N 30°08' W 124°45'9 9.4
2017-Mar-16 11:33N 30°11' W 124°36'10 9.6
2017-Mar-16 10:30N 30°14' W 124°24'11 9.7
2017-Mar-16 09:19N 30°19' W 124°12'9 9.6
2017-Mar-16 08:19N 30°22' W 124°02'7 9.5
2017-Mar-16 07:33N 30°24' W 123°54'  
Track history (hours):
 
Tides and Currents Weather Stations Pressure Air Temp Water Temp Dewpoint Dewpoint Depression Visibility Wind Speed Wind Dir Waves Ship Positions

Oceanographic research ship New Horizon (USA)

Detailed information on ship capabilities available from University of Delaware's Ocean Information Center.

Owner: Bold Horizon, LLC., Annapolis, MD. More information available from US FCC via Universal Licensing System and Coast Guard Vessel Documentation Center.

Last reported at 2017-Mar-26 01:33 UTC. Time now 2017-Mar-26 01:42 UTC.
Position N 32°37' W 117°15'.

Type: Cargo ship. MMSI: 303273000.

Date/timePositionNaut miles runAvg speedWind from/ knotsBaromVisibWave heightAir tempDewpointWater temp
2017-Mar-26 01:33N 32°37' W 117°15'9 8.9
2017-Mar-26 00:33N 32°34' W 117°25'9 8.8
2017-Mar-25 23:33N 32°31' W 117°35'9 8.7
2017-Mar-25 22:33N 32°28' W 117°44'9 8.6
2017-Mar-25 21:33N 32°24' W 117°54'102 8.5
2017-Mar-25 09:32N 31°47' W 119°46'11 8.3
2017-Mar-25 08:12N 31°43' W 119°58'5 8.4
2017-Mar-25 07:33N 31°42' W 120°04'9 8.7
2017-Mar-25 06:33N 31°38' W 120°14'10 9.1
2017-Mar-25 05:30N 31°35' W 120°24'9 9.0
2017-Mar-25 04:33N 31°32' W 120°33'28 9.0
2017-Mar-25 01:25N 31°22' W 121°04'51 8.7
2017-Mar-24 19:33N 31°04' W 121°60'10 8.6
2017-Mar-24 18:23N 30°60' W 122°11'  
2017-Mar-16 17:25N 29°51' W 125°34'8 9.1
2017-Mar-16 16:34N 29°54' W 125°25'12 9.1
2017-Mar-16 15:15N 29°58' W 125°12'7 9.0
2017-Mar-16 14:30N 30°01' W 125°05'9 9.3
2017-Mar-16 13:29N 30°04' W 124°55'9 9.5
2017-Mar-16 12:32N 30°08' W 124°45'9 9.4
2017-Mar-16 11:33N 30°11' W 124°36'10 9.6
2017-Mar-16 10:30N 30°14' W 124°24'11 9.7
2017-Mar-16 09:19N 30°19' W 124°12'9 9.6
2017-Mar-16 08:19N 30°22' W 124°02'7 9.5
2017-Mar-16 07:33N 30°24' W 123°54'  

Dump ship's entire track history